createdAt,value
2023-05-05T00:00:21.050Z,101722.13
2023-05-05T00:01:24.034Z,101717.34
2023-05-05T00:02:27.647Z,101711.41
2023-05-05T00:03:30.422Z,101711.25
2023-05-05T00:04:34.007Z,101714.38
2023-05-05T00:05:37.398Z,101719.50
2023-05-05T00:06:40.966Z,101711.53
2023-05-05T00:07:43.434Z,101711.47
2023-05-05T00:08:48.992Z,101706.94
2023-05-05T00:09:51.782Z,101710.53
2023-05-05T00:10:56.147Z,101706.56
2023-05-05T00:11:58.395Z,101710.13
2023-05-05T00:13:02.208Z,101710.50
2023-05-05T00:14:04.833Z,101714.81
2023-05-05T00:15:10.435Z,101710.41
2023-05-05T00:16:12.834Z,101715.84
2023-05-05T00:17:17.632Z,101711.91
2023-05-05T00:18:21.414Z,101704.16
2023-05-05T00:19:25.391Z,101703.88
2023-05-05T00:20:27.992Z,101698.09
2023-05-05T00:21:31.984Z,101700.25
2023-05-05T00:22:34.718Z,101701.56
2023-05-05T00:23:38.571Z,101699.44
2023-05-05T00:24:42.677Z,101691.06
2023-05-05T00:25:48.840Z,101687.53
2023-05-05T00:26:51.637Z,101697.59
2023-05-05T00:27:58.207Z,101695.13
2023-05-05T00:29:05.172Z,101693.00
2023-05-05T00:30:13.845Z,101685.34
2023-05-05T00:31:17.806Z,101682.47
2023-05-05T00:32:22.820Z,101688.00
2023-05-05T00:33:26.977Z,101671.91
2023-05-05T00:34:32.203Z,101676.63
2023-05-05T00:35:35.288Z,101682.25
2023-05-05T00:36:38.977Z,101676.28
2023-05-05T00:37:41.642Z,101677.44
2023-05-05T00:38:45.380Z,101674.31
2023-05-05T00:39:49.792Z,101670.31
2023-05-05T00:40:54.509Z,101671.91
2023-05-05T00:41:57.068Z,101664.09
2023-05-05T00:43:00.928Z,101665.66
2023-05-05T00:44:03.622Z,101666.53
2023-05-05T00:45:08.928Z,101665.28
2023-05-05T00:46:22.226Z,101661.16
2023-05-05T00:47:26.149Z,101662.59
2023-05-05T00:48:30.244Z,101669.38
2023-05-05T00:49:35.021Z,101659.84
2023-05-05T00:50:38.969Z,101655.00
2023-05-05T00:51:42.759Z,101657.16
2023-05-05T00:52:45.375Z,101658.75
2023-05-05T00:53:50.198Z,101658.81
2023-05-05T00:54:54.921Z,101652.78
2023-05-05T00:55:58.880Z,101656.31
2023-05-05T00:57:02.350Z,101652.59
2023-05-05T00:58:07.083Z,101650.50
2023-05-05T00:59:10.052Z,101650.34
2023-05-05T01:00:14.515Z,101647.41
2023-05-05T01:01:18.595Z,101650.56
2023-05-05T01:02:22.868Z,101653.34
2023-05-05T01:03:25.664Z,101648.53
2023-05-05T01:04:29.915Z,101640.25
2023-05-05T01:05:47.166Z,101635.44
2023-05-05T01:07:05.384Z,101636.56
2023-05-05T01:08:24.481Z,101637.25
2023-05-05T01:09:40.975Z,101636.81
2023-05-05T01:10:49.385Z,101639.56
2023-05-05T01:12:01.836Z,101638.16
2023-05-05T01:13:21.647Z,101636.28
2023-05-05T01:14:30.602Z,101628.19
2023-05-05T01:15:36.866Z,101630.56
2023-05-05T01:16:45.953Z,101633.53
2023-05-05T01:17:56.238Z,101629.13
2023-05-05T01:19:12.376Z,101630.75
2023-05-05T01:20:24.123Z,101632.13
2023-05-05T01:21:32.353Z,101635.44
2023-05-05T01:22:40.236Z,101639.94
2023-05-05T01:24:12.404Z,101632.22
2023-05-05T01:25:48.213Z,101636.97
2023-05-05T01:27:08.022Z,101632.09
2023-05-05T01:28:29.389Z,101629.78
2023-05-05T01:30:05.788Z,101626.75
2023-05-05T01:31:24.265Z,101635.03
2023-05-05T01:32:33.227Z,101627.16
2023-05-05T01:33:42.129Z,101627.31
2023-05-05T01:34:54.662Z,101619.50
2023-05-05T01:36:03.731Z,101626.97
2023-05-05T01:37:13.469Z,101630.06
2023-05-05T01:38:18.866Z,101618.97
2023-05-05T01:39:25.880Z,101623.47
2023-05-05T01:40:34.024Z,101631.38
2023-05-05T01:41:43.264Z,101628.88
2023-05-05T01:42:46.384Z,101617.34
2023-05-05T01:43:52.986Z,101619.19
2023-05-05T01:44:57.445Z,101622.63
2023-05-05T01:46:02.408Z,101621.41
2023-05-05T01:47:06.929Z,101622.03
2023-05-05T01:48:13.036Z,101621.63
2023-05-05T01:49:16.574Z,101617.72
2023-05-05T01:50:21.040Z,101613.78
2023-05-05T01:51:27.348Z,101623.31
2023-05-05T01:52:31.789Z,101621.28
2023-05-05T01:53:36.767Z,101628.78
2023-05-05T01:54:41.750Z,101617.66
2023-05-05T01:55:46.658Z,101622.13
2023-05-05T01:56:52.163Z,101620.84
2023-05-05T01:57:58.979Z,101618.66
2023-05-05T01:59:03.336Z,101621.72
2023-05-05T02:00:10.136Z,101622.03
2023-05-05T02:01:15.004Z,101616.66
2023-05-05T02:02:20.630Z,101620.31
2023-05-05T02:03:27.807Z,101617.44
2023-05-05T02:04:32.435Z,101618.34
2023-05-05T02:05:38.765Z,101611.94
2023-05-05T02:06:43.409Z,101613.75
2023-05-05T02:07:48.092Z,101615.22
2023-05-05T02:08:53.155Z,101608.19
2023-05-05T02:09:58.284Z,101611.19
2023-05-05T02:11:02.040Z,101612.16
2023-05-05T02:12:07.672Z,101609.72
2023-05-05T02:13:13.587Z,101613.34
2023-05-05T02:14:22.908Z,101604.84
2023-05-05T02:15:28.334Z,101612.31
2023-05-05T02:16:32.765Z,101607.06
2023-05-05T02:17:35.891Z,101603.72
2023-05-05T02:18:44.026Z,101600.63
2023-05-05T02:19:49.344Z,101600.69
2023-05-05T02:20:53.467Z,101610.53
2023-05-05T02:21:57.250Z,101603.38
2023-05-05T02:23:00.070Z,101600.69
2023-05-05T02:24:04.283Z,101607.56
2023-05-05T02:25:08.029Z,101601.47
2023-05-05T02:26:15.503Z,101603.72
2023-05-05T02:27:22.124Z,101602.91
2023-05-05T02:28:34.941Z,101596.31
2023-05-05T02:29:48.072Z,101592.03
2023-05-05T02:30:58.393Z,101594.28
2023-05-05T02:32:05.805Z,101595.13
2023-05-05T02:33:12.837Z,101596.25
2023-05-05T02:34:24.940Z,101598.44
2023-05-05T02:35:35.932Z,101591.44
2023-05-05T02:36:42.706Z,101591.81
2023-05-05T02:37:52.136Z,101598.91
2023-05-05T02:39:00.029Z,101594.56
2023-05-05T02:40:06.260Z,101592.38
2023-05-05T02:41:12.706Z,101593.84
2023-05-05T02:42:20.175Z,101592.63
2023-05-05T02:43:24.986Z,101593.91
2023-05-05T02:44:30.829Z,101588.75
2023-05-05T02:45:33.393Z,101590.28
2023-05-05T02:46:39.875Z,101586.47
2023-05-05T02:47:42.588Z,101583.63
2023-05-05T02:48:47.280Z,101584.06
2023-05-05T02:49:51.579Z,101585.66
2023-05-05T02:50:55.485Z,101581.94
2023-05-05T02:51:58.216Z,101582.88
2023-05-05T02:53:02.396Z,101579.03
2023-05-05T02:54:05.342Z,101583.50
2023-05-05T02:55:10.633Z,101584.59
2023-05-05T02:56:23.425Z,101574.31
2023-05-05T02:57:35.723Z,101587.53
2023-05-05T02:58:46.743Z,101582.94
2023-05-05T02:59:58.802Z,101589.78
2023-05-05T03:01:11.360Z,101578.28
2023-05-05T03:02:19.817Z,101585.69
2023-05-05T03:03:29.105Z,101577.84
2023-05-05T03:04:41.586Z,101576.59
2023-05-05T03:05:51.606Z,101573.38
2023-05-05T03:06:59.900Z,101570.59
2023-05-05T03:08:06.153Z,101575.78
2023-05-05T03:09:14.505Z,101571.13
2023-05-05T03:10:21.802Z,101574.41
2023-05-05T03:11:30.919Z,101564.50
2023-05-05T03:12:38.725Z,101567.31
2023-05-05T03:13:44.280Z,101573.00
2023-05-05T03:14:49.303Z,101567.38
2023-05-05T03:15:54.940Z,101567.63
2023-05-05T03:16:57.865Z,101567.00
2023-05-05T03:18:03.753Z,101566.66
2023-05-05T03:19:09.043Z,101564.63
2023-05-05T03:20:17.090Z,101564.16
2023-05-05T03:21:21.421Z,101561.69
2023-05-05T03:22:27.548Z,101558.44
2023-05-05T03:23:32.417Z,101554.16
2023-05-05T03:24:35.980Z,101554.34
2023-05-05T03:25:46.267Z,101548.66
2023-05-05T03:26:51.528Z,101545.34
2023-05-05T03:27:54.916Z,101546.88
2023-05-05T03:28:58.470Z,101547.06
2023-05-05T03:30:01.072Z,101541.34
2023-05-05T03:31:05.051Z,101541.66
2023-05-05T03:32:08.641Z,101538.97
2023-05-05T03:33:12.685Z,101544.91
2023-05-05T03:34:16.118Z,101545.06
2023-05-05T03:35:20.084Z,101543.88
2023-05-05T03:36:27.184Z,101550.53
2023-05-05T03:37:31.234Z,101550.34
2023-05-05T03:38:34.660Z,101551.28
2023-05-05T03:39:37.211Z,101557.09
2023-05-05T03:40:44.623Z,101552.25
2023-05-05T03:41:47.468Z,101546.81
2023-05-05T03:42:51.136Z,101550.78
2023-05-05T03:43:54.062Z,101551.88
2023-05-05T03:44:57.709Z,101545.78
2023-05-05T03:46:00.426Z,101542.56
2023-05-05T03:47:04.122Z,101546.50
2023-05-05T03:48:07.257Z,101546.38
2023-05-05T03:49:10.944Z,101546.06
2023-05-05T03:50:13.530Z,101552.19
2023-05-05T03:51:17.249Z,101549.31
2023-05-05T03:52:21.216Z,101548.44
2023-05-05T03:53:25.093Z,101548.44
2023-05-05T03:54:27.631Z,101549.91
2023-05-05T03:55:31.255Z,101545.56
2023-05-05T03:56:33.847Z,101548.38
2023-05-05T03:57:37.880Z,101549.38
2023-05-05T03:58:40.718Z,101544.63
2023-05-05T03:59:44.495Z,101550.03
2023-05-05T04:00:46.978Z,101543.91
2023-05-05T04:01:50.601Z,101541.28
2023-05-05T04:02:53.222Z,101541.47
2023-05-05T04:03:57.810Z,101544.22
2023-05-05T04:05:00.653Z,101538.72
2023-05-05T04:06:04.857Z,101543.75
2023-05-05T04:07:07.535Z,101543.59
2023-05-05T04:08:12.724Z,101544.22
2023-05-05T04:09:15.638Z,101539.66
2023-05-05T04:10:20.348Z,101535.53
2023-05-05T04:11:23.233Z,101526.78
2023-05-05T04:12:27.177Z,101533.88
2023-05-05T04:13:30.002Z,101535.63
2023-05-05T04:14:34.312Z,101538.13
2023-05-05T04:15:37.560Z,101538.03
2023-05-05T04:16:41.907Z,101542.09
2023-05-05T04:17:44.755Z,101536.22
2023-05-05T04:18:48.693Z,101538.13
2023-05-05T04:19:51.953Z,101543.00
2023-05-05T04:20:56.054Z,101544.66
2023-05-05T04:21:59.554Z,101544.03
2023-05-05T04:23:03.853Z,101548.00
2023-05-05T04:24:08.608Z,101551.72
2023-05-05T04:25:12.680Z,101539.50
2023-05-05T04:26:15.656Z,101543.25
2023-05-05T04:27:19.858Z,101546.75
2023-05-05T04:28:22.525Z,101552.97
2023-05-05T04:29:26.317Z,101552.38
2023-05-05T04:30:29.290Z,101547.06
2023-05-05T04:31:33.433Z,101549.97
2023-05-05T04:32:36.411Z,101549.97
2023-05-05T04:33:40.476Z,101551.09
2023-05-05T04:34:43.189Z,101553.25
2023-05-05T04:35:47.269Z,101550.84
2023-05-05T04:36:50.683Z,101554.44
2023-05-05T04:37:55.116Z,101558.50
2023-05-05T04:38:58.144Z,101554.44
2023-05-05T04:40:04.059Z,101558.63
2023-05-05T04:41:07.399Z,101552.88
2023-05-05T04:42:11.561Z,101554.78
2023-05-05T04:43:14.844Z,101554.81
2023-05-05T04:44:18.477Z,101548.34
2023-05-05T04:45:21.313Z,101559.91
2023-05-05T04:46:26.401Z,101561.50
2023-05-05T04:47:31.277Z,101560.09
2023-05-05T04:48:34.561Z,101561.72
2023-05-05T04:49:38.749Z,101562.31
2023-05-05T04:50:41.212Z,101568.81
2023-05-05T04:51:44.636Z,101568.75
2023-05-05T04:52:46.997Z,101564.34
2023-05-05T04:53:50.852Z,101562.72
2023-05-05T04:54:53.257Z,101567.66
2023-05-05T04:55:58.292Z,101562.94
2023-05-05T04:57:00.653Z,101565.53
2023-05-05T04:58:04.315Z,101571.69
2023-05-05T04:59:06.649Z,101576.31
2023-05-05T05:00:11.353Z,101575.00
2023-05-05T05:01:14.397Z,101573.56
2023-05-05T05:02:18.485Z,101578.44
2023-05-05T05:03:21.216Z,101586.03
2023-05-05T05:04:26.108Z,101573.13
2023-05-05T05:05:29.677Z,101582.41
2023-05-05T05:06:32.609Z,101583.03
2023-05-05T05:07:36.216Z,101580.84
2023-05-05T05:08:38.730Z,101584.41
2023-05-05T05:09:42.371Z,101588.63
2023-05-05T05:10:45.450Z,101581.53
2023-05-05T05:11:50.550Z,101583.84
2023-05-05T05:12:53.370Z,101581.94
2023-05-05T05:13:57.090Z,101595.13
2023-05-05T05:14:59.660Z,101586.47
2023-05-05T05:16:03.994Z,101586.09
2023-05-05T05:17:07.150Z,101584.50
2023-05-05T05:18:10.934Z,101586.13
2023-05-05T05:19:14.061Z,101588.03
2023-05-05T05:20:17.722Z,101592.25
2023-05-05T05:21:20.547Z,101583.50
2023-05-05T05:22:24.441Z,101595.47
2023-05-05T05:23:26.902Z,101590.84
2023-05-05T05:24:30.657Z,101597.47
2023-05-05T05:25:33.174Z,101596.34
2023-05-05T05:26:36.795Z,101590.59
2023-05-05T05:27:41.898Z,101595.75
2023-05-05T05:28:45.622Z,101597.94
2023-05-05T05:29:48.126Z,101595.84
2023-05-05T05:30:52.250Z,101605.19
2023-05-05T05:31:55.087Z,101602.03
2023-05-05T05:32:58.667Z,101606.22
2023-05-05T05:34:01.258Z,101610.47
2023-05-05T05:35:04.863Z,101609.59
2023-05-05T05:36:07.537Z,101609.09
2023-05-05T05:37:11.381Z,101606.34
2023-05-05T05:38:13.936Z,101605.22
2023-05-05T05:39:18.298Z,101606.75
2023-05-05T05:40:21.417Z,101602.50
2023-05-05T05:41:25.886Z,101609.69
2023-05-05T05:42:28.370Z,101605.97
2023-05-05T05:43:33.552Z,101613.69
2023-05-05T05:44:36.720Z,101606.22
2023-05-05T05:45:40.657Z,101605.81
2023-05-05T05:46:43.534Z,101610.50
2023-05-05T05:47:47.303Z,101605.69
2023-05-05T05:48:50.000Z,101613.38
2023-05-05T05:49:54.717Z,101609.31
2023-05-05T05:50:57.833Z,101615.50
2023-05-05T05:52:01.484Z,101609.94
2023-05-05T05:53:04.671Z,101607.03
2023-05-05T05:54:09.185Z,101613.06
2023-05-05T05:55:11.924Z,101605.38
2023-05-05T05:56:15.547Z,101611.22
2023-05-05T05:57:17.886Z,101612.88
2023-05-05T05:58:21.450Z,101615.88
2023-05-05T05:59:26.437Z,101609.63
2023-05-05T06:00:28.990Z,101609.09
2023-05-05T06:01:33.289Z,101613.13
2023-05-05T06:02:35.888Z,101621.84
2023-05-05T06:03:39.508Z,101616.38
2023-05-05T06:04:42.447Z,101616.66
2023-05-05T06:05:47.139Z,101617.47
2023-05-05T06:06:49.978Z,101617.97
2023-05-05T06:07:53.724Z,101618.53
2023-05-05T06:08:56.228Z,101626.94
2023-05-05T06:10:02.915Z,101625.66
2023-05-05T06:11:11.112Z,101625.69
2023-05-05T06:12:13.435Z,101630.72
2023-05-05T06:13:16.832Z,101629.69
2023-05-05T06:14:20.128Z,101633.94
2023-05-05T06:15:26.052Z,101637.91
2023-05-05T06:16:30.310Z,101636.34
2023-05-05T06:17:32.632Z,101636.69
2023-05-05T06:18:36.119Z,101635.63
2023-05-05T06:19:40.067Z,101640.59
2023-05-05T06:20:44.082Z,101635.34
2023-05-05T06:21:46.611Z,101636.44
2023-05-05T06:22:49.878Z,101645.75
2023-05-05T06:23:53.199Z,101641.75
2023-05-05T06:24:55.633Z,101638.84
2023-05-05T06:25:59.524Z,101638.84
2023-05-05T06:27:02.483Z,101639.59
2023-05-05T06:28:07.339Z,101639.91
2023-05-05T06:29:12.148Z,101641.19
2023-05-05T06:30:16.278Z,101641.69
2023-05-05T06:31:22.005Z,101642.47
2023-05-05T06:32:24.791Z,101647.81
2023-05-05T06:33:28.272Z,101646.78
2023-05-05T06:34:30.554Z,101657.31
2023-05-05T06:35:34.328Z,101647.53
2023-05-05T06:36:37.221Z,101648.34
2023-05-05T06:37:41.386Z,101655.69
2023-05-05T06:38:43.727Z,101649.31
2023-05-05T06:39:48.431Z,101651.47
2023-05-05T06:40:53.084Z,101655.22
2023-05-05T06:41:55.418Z,101651.00
2023-05-05T06:42:58.963Z,101655.78
2023-05-05T06:44:01.276Z,101652.56
2023-05-05T06:45:06.473Z,101654.69
2023-05-05T06:46:10.231Z,101649.94
2023-05-05T06:47:14.599Z,101656.31
2023-05-05T06:48:18.363Z,101656.00
2023-05-05T06:49:21.185Z,101648.63
2023-05-05T06:50:25.235Z,101653.41
2023-05-05T06:51:29.237Z,101661.56
2023-05-05T06:52:31.796Z,101649.94
2023-05-05T06:53:35.928Z,101655.25
2023-05-05T06:54:38.778Z,101656.84
2023-05-05T06:55:46.472Z,101658.44
2023-05-05T06:56:50.380Z,101655.81
2023-05-05T06:57:53.748Z,101656.41
2023-05-05T06:58:58.325Z,101661.16
2023-05-05T07:00:01.230Z,101656.13
2023-05-05T07:01:06.295Z,101654.81
2023-05-05T07:02:10.064Z,101654.56
2023-05-05T07:03:15.591Z,101652.47
2023-05-05T07:04:19.165Z,101654.31
2023-05-05T07:05:23.821Z,101660.13
2023-05-05T07:06:27.811Z,101650.88
2023-05-05T07:07:32.597Z,101654.56
2023-05-05T07:08:36.160Z,101651.66
2023-05-05T07:09:39.142Z,101651.69
2023-05-05T07:10:42.936Z,101654.59
2023-05-05T07:11:45.504Z,101651.66
2023-05-05T07:12:49.366Z,101655.38
2023-05-05T07:13:53.860Z,101656.16
2023-05-05T07:14:58.290Z,101649.53
2023-05-05T07:16:01.453Z,101655.63
2023-05-05T07:17:05.273Z,101651.91
2023-05-05T07:18:09.384Z,101655.66
2023-05-05T07:19:15.045Z,101651.66
2023-05-05T07:20:17.966Z,101652.19
2023-05-05T07:21:21.860Z,101652.19
2023-05-05T07:22:24.286Z,101654.28
2023-05-05T07:23:28.155Z,101653.19
2023-05-05T07:24:31.865Z,101650.53
2023-05-05T07:25:35.507Z,101653.41
2023-05-05T07:26:38.029Z,101647.88
2023-05-05T07:27:42.098Z,101650.84
2023-05-05T07:28:45.119Z,101649.00
2023-05-05T07:29:49.461Z,101651.38
2023-05-05T07:30:53.561Z,101650.84
2023-05-05T07:31:56.259Z,101654.84
2023-05-05T07:32:59.916Z,101651.41
2023-05-05T07:34:04.183Z,101653.50
2023-05-05T07:35:09.284Z,101653.25
2023-05-05T07:36:13.202Z,101656.16
2023-05-05T07:37:17.873Z,101656.16
2023-05-05T07:38:22.300Z,101652.97
2023-05-05T07:39:25.927Z,101659.59
2023-05-05T07:40:29.768Z,101658.25
2023-05-05T07:41:34.863Z,101660.59
2023-05-05T07:42:37.673Z,101658.47
2023-05-05T07:43:44.244Z,101655.09
2023-05-05T07:44:47.728Z,101658.25
2023-05-05T07:45:51.485Z,101662.78
2023-05-05T07:46:54.286Z,101658.28
2023-05-05T07:47:58.098Z,101657.19
2023-05-05T07:49:01.928Z,101661.75
2023-05-05T07:50:06.630Z,101654.84
2023-05-05T07:51:12.330Z,101662.25
2023-05-05T07:52:15.350Z,101658.25
2023-05-05T07:53:19.119Z,101659.31
2023-05-05T07:54:22.854Z,101659.09
2023-05-05T07:55:25.630Z,101663.84
2023-05-05T07:56:30.238Z,101659.34
2023-05-05T07:57:36.605Z,101666.44
2023-05-05T07:58:40.485Z,101664.03
2023-05-05T07:59:44.230Z,101665.88
2023-05-05T08:00:49.374Z,101661.09
2023-05-05T08:01:53.677Z,101670.66
2023-05-05T08:02:58.444Z,101661.34
2023-05-05T08:04:02.274Z,101674.38
2023-05-05T08:05:07.223Z,101658.22
2023-05-05T08:06:12.963Z,101669.06
2023-05-05T08:07:15.882Z,101670.91
2023-05-05T08:08:19.630Z,101666.13
2023-05-05T08:09:23.568Z,101668.50
2023-05-05T08:10:27.460Z,101663.13
2023-05-05T08:11:30.236Z,101669.53
2023-05-05T08:12:33.989Z,101673.00
2023-05-05T08:13:39.319Z,101670.31
2023-05-05T08:14:42.870Z,101667.97
2023-05-05T08:15:47.222Z,101671.16
2023-05-05T08:16:50.023Z,101665.59
2023-05-05T08:17:55.962Z,101667.88
2023-05-05T08:19:00.292Z,101663.88
2023-05-05T08:20:03.376Z,101666.78
2023-05-05T08:21:07.729Z,101666.78
2023-05-05T08:22:11.943Z,101665.16
2023-05-05T08:23:15.633Z,101664.38
2023-05-05T08:24:18.174Z,101661.22
2023-05-05T08:25:21.975Z,101664.66
2023-05-05T08:26:24.470Z,101666.22
2023-05-05T08:27:28.045Z,101669.19
2023-05-05T08:28:31.316Z,101668.63
2023-05-05T08:29:34.682Z,101667.28
2023-05-05T08:30:38.047Z,101667.50
2023-05-05T08:31:42.931Z,101654.94
2023-05-05T08:32:47.114Z,101660.63
2023-05-05T08:33:50.642Z,101664.38
2023-05-05T08:34:52.958Z,101660.19
2023-05-05T08:35:56.628Z,101659.38
2023-05-05T08:36:59.375Z,101662.88
2023-05-05T08:38:04.658Z,101656.00
2023-05-05T08:39:08.680Z,101656.22
2023-05-05T08:40:15.174Z,101650.13
2023-05-05T08:41:19.283Z,101653.09
2023-05-05T08:42:36.328Z,101674.41
2023-05-05T08:43:42.026Z,101670.44
2023-05-05T08:44:44.997Z,101661.47
2023-05-05T08:45:49.937Z,101665.97
2023-05-05T08:46:53.645Z,101666.03
2023-05-05T08:47:58.776Z,101658.56
2023-05-05T08:49:05.440Z,101657.75
2023-05-05T08:50:12.640Z,101660.41
2023-05-05T08:51:21.682Z,101664.94
2023-05-05T08:52:26.771Z,101664.16
2023-05-05T08:53:48.774Z,101662.00
2023-05-05T08:54:56.538Z,101659.84
2023-05-05T08:56:02.898Z,101662.47
2023-05-05T08:57:12.317Z,101661.47
2023-05-05T08:58:19.211Z,101662.28
2023-05-05T08:59:25.470Z,101664.41
2023-05-05T09:00:28.946Z,101662.47
2023-05-05T09:01:35.897Z,101665.13
2023-05-05T09:02:40.876Z,101666.75
2023-05-05T09:03:46.236Z,101663.09
2023-05-05T09:04:50.159Z,101664.41
2023-05-05T09:05:55.043Z,101661.22
2023-05-05T09:06:58.731Z,101659.28
2023-05-05T09:08:03.383Z,101661.94
2023-05-05T09:09:10.524Z,101665.59
2023-05-05T09:10:13.597Z,101661.28
2023-05-05T09:11:17.491Z,101658.63
2023-05-05T09:12:22.045Z,101665.84
2023-05-05T09:13:25.901Z,101663.25
2023-05-05T09:14:28.625Z,101670.88
2023-05-05T09:15:33.390Z,101671.53
2023-05-05T09:16:37.166Z,101659.06
2023-05-05T09:17:40.677Z,101664.69
2023-05-05T09:18:45.793Z,101665.78
2023-05-05T09:20:04.490Z,101668.41
2023-05-05T09:21:22.223Z,101663.16
2023-05-05T09:22:37.139Z,101664.78
2023-05-05T09:23:40.863Z,101656.25
2023-05-05T09:24:55.413Z,101660.53
2023-05-05T09:26:08.934Z,101658.59
2023-05-05T09:27:24.712Z,101662.88
2023-05-05T09:28:29.364Z,101659.63
2023-05-05T09:29:33.611Z,101657.53
2023-05-05T09:30:37.139Z,101653.03
2023-05-05T09:31:41.273Z,101648.50
2023-05-05T09:32:48.491Z,101652.28
2023-05-05T09:33:52.149Z,101649.88
2023-05-05T09:35:00.354Z,101649.38
2023-05-05T09:36:04.055Z,101653.03
2023-05-05T09:37:06.947Z,101651.69
2023-05-05T09:38:13.845Z,101643.78
2023-05-05T09:39:19.589Z,101648.00
2023-05-05T09:40:25.466Z,101644.28
2023-05-05T09:41:38.301Z,101650.13
2023-05-05T09:42:42.606Z,101648.75
2023-05-05T09:43:52.346Z,101653.03
2023-05-05T09:44:59.733Z,101659.38
2023-05-05T09:46:08.961Z,101645.56
2023-05-05T09:47:25.970Z,101649.78
2023-05-05T09:48:35.094Z,101648.09
2023-05-05T09:49:40.028Z,101643.16
2023-05-05T09:50:44.380Z,101646.72
2023-05-05T09:51:49.300Z,101646.16
2023-05-05T09:52:57.721Z,101652.72
2023-05-05T09:54:00.538Z,101645.94
2023-05-05T09:55:05.458Z,101648.50
2023-05-05T09:56:11.613Z,101640.72
2023-05-05T09:57:27.265Z,101647.50
2023-05-05T09:58:34.786Z,101642.34
2023-05-05T09:59:39.175Z,101641.84
2023-05-05T10:00:43.572Z,101647.25
2023-05-05T10:01:48.072Z,101636.88
2023-05-05T10:02:50.902Z,101641.03
2023-05-05T10:03:55.218Z,101649.69
2023-05-05T10:05:11.534Z,101652.50
2023-05-05T10:06:15.297Z,101646.97
2023-05-05T10:07:25.420Z,101653.28
2023-05-05T10:08:31.667Z,101644.38
2023-05-05T10:09:34.272Z,101650.97
2023-05-05T10:10:38.924Z,101651.44
2023-05-05T10:11:45.341Z,101651.94
2023-05-05T10:12:50.163Z,101648.25
2023-05-05T10:13:53.082Z,101643.00
2023-05-05T10:14:58.504Z,101645.66
2023-05-05T10:16:04.681Z,101641.84
2023-05-05T10:17:10.015Z,101641.56
2023-05-05T10:18:16.179Z,101638.22
2023-05-05T10:19:21.584Z,101637.69
2023-05-05T10:20:27.830Z,101633.34
2023-05-05T10:21:35.614Z,101633.59
2023-05-05T10:22:41.012Z,101644.03
2023-05-05T10:23:49.977Z,101633.28
2023-05-05T10:24:58.453Z,101622.28
2023-05-05T10:26:05.045Z,101627.81
2023-05-05T10:27:16.869Z,101628.81
2023-05-05T10:28:28.963Z,101622.00
2023-05-05T10:29:39.779Z,101634.19
2023-05-05T10:30:47.933Z,101635.16
2023-05-05T10:31:54.913Z,101624.44
2023-05-05T10:33:27.123Z,101634.34
2023-05-05T10:34:39.294Z,101631.38
2023-05-05T10:35:44.731Z,101637.88
2023-05-05T10:36:50.745Z,101627.41
2023-05-05T10:37:54.641Z,101625.25
2023-05-05T10:38:58.941Z,101628.66
2023-05-05T10:40:02.576Z,101624.66
2023-05-05T10:41:07.159Z,101632.69
2023-05-05T10:42:13.928Z,101626.16
2023-05-05T10:43:18.433Z,101621.13
2023-05-05T10:44:23.055Z,101618.94
2023-05-05T10:45:26.983Z,101626.38
2023-05-05T10:46:30.042Z,101624.41
2023-05-05T10:47:34.688Z,101623.56
2023-05-05T10:48:42.725Z,101637.94
2023-05-05T10:49:52.520Z,101622.91
2023-05-05T10:51:01.183Z,101629.78
2023-05-05T10:52:15.565Z,101628.91
2023-05-05T10:53:22.747Z,101627.00
2023-05-05T10:54:34.283Z,101627.28
2023-05-05T10:55:46.178Z,101621.03
2023-05-05T10:56:49.359Z,101624.63
2023-05-05T10:57:56.242Z,101627.66
2023-05-05T10:59:00.642Z,101630.47
2023-05-05T11:00:05.293Z,101614.06
2023-05-05T11:01:09.498Z,101613.06
2023-05-05T11:02:25.004Z,101626.03
2023-05-05T11:03:30.219Z,101620.47
2023-05-05T11:04:33.437Z,101612.28
2023-05-05T11:05:37.836Z,101616.22
2023-05-05T11:06:40.448Z,101616.38
2023-05-05T11:07:45.041Z,101616.66
2023-05-05T11:08:48.862Z,101614.50
2023-05-05T11:09:57.190Z,101609.91
2023-05-05T11:11:01.947Z,101605.91
2023-05-05T11:12:06.483Z,101607.63
2023-05-05T11:13:22.166Z,101611.63
2023-05-05T11:14:25.046Z,101607.84
2023-05-05T11:15:38.054Z,101609.69
2023-05-05T11:16:48.283Z,101605.69
2023-05-05T11:17:50.979Z,101600.53
2023-05-05T11:18:55.180Z,101597.44
2023-05-05T11:19:57.756Z,101606.25
2023-05-05T11:21:22.282Z,101597.75
2023-05-05T11:22:24.638Z,101595.03
2023-05-05T11:23:28.947Z,101596.03
2023-05-05T11:24:33.512Z,101605.19
2023-05-05T11:25:48.427Z,101596.06
2023-05-05T11:26:53.247Z,101601.06
2023-05-05T11:28:05.401Z,101600.00
2023-05-05T11:29:11.095Z,101597.44
2023-05-05T11:30:15.414Z,101599.47
2023-05-05T11:31:21.026Z,101602.06
2023-05-05T11:32:25.212Z,101596.06
2023-05-05T11:33:29.261Z,101596.59
2023-05-05T11:34:33.170Z,101595.59
2023-05-05T11:35:56.580Z,101596.38
2023-05-05T11:37:04.485Z,101595.38
2023-05-05T11:38:08.922Z,101601.59
2023-05-05T11:39:24.699Z,101601.72
2023-05-05T11:40:34.897Z,101605.44
2023-05-05T11:42:10.952Z,101594.72
2023-05-05T11:43:19.736Z,101607.13
2023-05-05T11:44:32.152Z,101600.25
2023-05-05T11:45:36.632Z,101600.38
2023-05-05T11:46:41.202Z,101591.25
2023-05-05T11:47:44.999Z,101588.09
2023-05-05T11:48:48.925Z,101592.31
2023-05-05T11:49:52.821Z,101592.81
2023-05-05T11:50:56.480Z,101590.97
2023-05-05T11:52:00.264Z,101591.94
2023-05-05T11:53:04.584Z,101583.88
2023-05-05T11:54:07.343Z,101587.84
2023-05-05T11:55:12.238Z,101590.84
2023-05-05T11:56:19.441Z,101585.81
2023-05-05T11:57:30.256Z,101586.59
2023-05-05T11:58:34.061Z,101590.53
2023-05-05T11:59:50.272Z,101591.00
2023-05-05T12:00:53.902Z,101586.00
2023-05-05T12:01:56.750Z,101585.16
2023-05-05T12:03:01.020Z,101584.75
2023-05-05T12:04:03.780Z,101592.34
2023-05-05T12:05:08.818Z,101580.63
2023-05-05T12:06:11.311Z,101588.72
2023-05-05T12:07:16.789Z,101582.16
2023-05-05T12:08:21.050Z,101578.25
2023-05-05T12:09:24.175Z,101583.06
2023-05-05T12:10:28.672Z,101578.03
2023-05-05T12:11:31.116Z,101576.63
2023-05-05T12:12:37.386Z,101586.41
2023-05-05T12:13:40.143Z,101581.38
2023-05-05T12:14:50.480Z,101584.00
2023-05-05T12:15:53.138Z,101581.34
2023-05-05T12:16:57.322Z,101584.22
2023-05-05T12:18:03.030Z,101579.75
2023-05-05T12:19:07.616Z,101576.66
2023-05-05T12:20:12.481Z,101576.06
2023-05-05T12:21:16.512Z,101571.94
2023-05-05T12:22:25.112Z,101573.53
2023-05-05T12:23:30.173Z,101569.72
2023-05-05T12:24:33.639Z,101565.97
2023-05-05T12:25:39.306Z,101577.09
2023-05-05T12:26:42.130Z,101571.56
2023-05-05T12:27:54.290Z,101567.03